Time;durP1;ratioP1;P1;durP2;ratioP2;P2;SDS_P1;SDS_P2;PMS_P1;PMS_P2;Temp;Humidity;BMP_temperature;BMP_pressure;BME280_temperature;BME280_humidity;BME280_pressure;Samples;Min_cycle;Max_cycle;Signal;HPM_P1;HPM_P2
2024/01/25 00:00:57;;;;;;;22.13;5.07;;;;;;;7.20;85.86;101424.00;5056598;28;20206;-71
2024/01/25 00:03:26;;;;;;;30.17;5.60;;;;;;;7.22;85.45;101416.75;5056452;28;20225;-71
2024/01/25 00:05:54;;;;;;;27.33;5.57;;;;;;;7.26;84.79;101422.69;5056805;28;20210;-72
2024/01/25 00:08:23;;;;;;;27.67;5.27;;;;;;;7.23;85.42;101429.09;5056367;28;20765;-72
2024/01/25 00:10:52;;;;;;;25.20;5.97;;;;;;;7.23;85.44;101428.22;5056733;28;20283;-72
2024/01/25 00:13:21;;;;;;;26.43;5.70;;;;;;;7.23;86.22;101423.75;5056320;28;20770;-72
2024/01/25 00:15:50;;;;;;;22.80;5.20;;;;;;;7.24;86.05;101424.59;5056299;28;20210;-72
2024/01/25 00:18:19;;;;;;;29.13;5.47;;;;;;;7.25;85.12;101431.63;5056251;28;20679;-72
2024/01/25 00:20:48;;;;;;;26.13;5.73;;;;;;;7.25;85.38;101429.81;5056489;28;20298;-72
2024/01/25 00:23:17;;;;;;;24.80;5.83;;;;;;;7.24;85.88;101429.94;5056406;28;20232;-72
2024/01/25 00:25:46;;;;;;;28.13;5.53;;;;;;;7.23;86.65;101429.09;5056432;28;20272;-72
2024/01/25 00:28:14;;;;;;;27.60;5.60;;;;;;;7.21;85.91;101441.69;5056306;28;20232;-72
2024/01/25 00:30:44;;;;;;;25.73;6.77;;;;;;;7.22;86.86;101432.75;5056567;28;20214;-72
2024/01/25 00:33:13;;;;;;;24.00;5.70;;;;;;;7.21;87.23;101435.50;5056186;28;20230;-72
2024/01/25 00:35:42;;;;;;;26.60;6.13;;;;;;;7.21;87.13;101444.34;5055993;28;20636;-72
2024/01/25 00:38:11;;;;;;;25.70;5.53;;;;;;;7.19;87.84;101451.63;5056175;28;20230;-72
2024/01/25 00:40:40;;;;;;;24.83;5.47;;;;;;;7.18;87.79;101446.41;5056147;28;20284;-72
2024/01/25 00:43:10;;;;;;;25.23;5.53;;;;;;;7.14;88.11;101451.13;5056057;28;20671;-72
2024/01/25 00:45:39;;;;;;;26.93;6.00;;;;;;;7.19;87.99;101451.63;5056032;28;20212;-72
2024/01/25 00:48:11;;;;;;;28.90;5.80;;;;;;;7.18;87.82;101433.09;5055936;28;20240;-72
2024/01/25 00:50:40;;;;;;;28.63;6.03;;;;;;;7.18;87.80;101441.09;5056268;28;20187;-73
2024/01/25 00:53:10;;;;;;;28.13;5.60;;;;;;;7.17;88.28;101445.56;5055541;28;20712;-72
2024/01/25 00:55:39;;;;;;;31.17;5.97;;;;;;;7.14;88.96;101445.81;5055857;28;20241;-72
2024/01/25 00:58:08;;;;;;;26.63;5.63;;;;;;;7.13;88.74;101457.41;5055855;28;20202;-72
2024/01/25 01:00:37;;;;;;;22.20;5.33;;;;;;;7.16;88.96;101454.50;5055533;28;20275;-72
2024/01/25 01:03:08;;;;;;;31.57;6.23;;;;;;;7.14;89.07;101459.13;5055663;28;20280;-72
2024/01/25 01:05:37;;;;;;;31.07;5.70;;;;;;;7.13;89.13;101460.06;5055719;28;20226;-72
2024/01/25 01:08:07;;;;;;;30.27;6.30;;;;;;;7.12;89.44;101448.56;5055536;28;20237;-72
2024/01/25 01:10:36;;;;;;;31.60;5.87;;;;;;;7.10;89.31;101457.66;5055248;28;20581;-72
2024/01/25 01:13:04;;;;;;;27.87;6.20;;;;;;;7.10;89.13;101457.66;5055447;28;20257;-72
2024/01/25 01:15:33;;;;;;;27.33;5.60;;;;;;;7.08;89.83;101467.59;5055476;28;20210;-72
2024/01/25 01:18:02;;;;;;;25.30;5.73;;;;;;;7.08;89.71;101462.28;5055492;28;20226;-72
2024/01/25 01:20:32;;;;;;;30.97;6.40;;;;;;;7.11;89.45;101462.03;5055384;28;20210;-72
2024/01/25 01:23:01;;;;;;;26.47;6.17;;;;;;;7.09;89.28;101463.94;5056407;28;20226;-73
2024/01/25 01:25:29;;;;;;;28.57;5.80;;;;;;;7.05;89.92;101463.34;5055012;28;20745;-72
2024/01/25 01:27:58;;;;;;;25.47;5.87;;;;;;;7.03;90.01;101473.28;5054889;28;20209;-72
2024/01/25 01:30:26;;;;;;;30.67;6.03;;;;;;;7.04;89.58;101466.13;5056032;28;20206;-72
2024/01/25 01:32:55;;;;;;;22.63;5.63;;;;;;;7.01;90.09;101467.22;5054825;28;20233;-72
2024/01/25 01:35:23;;;;;;;25.63;5.73;;;;;;;7.01;89.90;101467.22;5054949;28;20264;-72
2024/01/25 01:37:53;;;;;;;27.20;6.30;;;;;;;7.00;90.28;101472.66;5055108;28;20206;-72
2024/01/25 01:40:22;;;;;;;32.77;7.10;;;;;;;6.97;89.40;101464.91;5054768;28;20244;-72
2024/01/25 01:42:51;;;;;;;31.47;5.67;;;;;;;6.95;90.14;101465.03;5055195;28;20229;-72
2024/01/25 01:45:20;;;;;;;30.30;6.20;;;;;;;6.95;90.21;101473.00;5054933;28;20210;-72
2024/01/25 01:47:48;;;;;;;23.90;5.73;;;;;;;6.96;89.99;101465.88;5054926;28;20289;-72
2024/01/25 01:50:17;;;;;;;22.90;5.80;;;;;;;6.95;89.61;101480.19;5054785;28;20222;-72
2024/01/25 01:52:47;;;;;;;30.37;6.00;;;;;;;6.96;89.88;101489.84;5054708;28;20210;-72
2024/01/25 01:55:18;;;;;;;25.50;5.23;;;;;;;6.96;89.66;101488.03;5054997;28;20725;-72
2024/01/25 01:57:48;;;;;;;26.80;5.40;;;;;;;6.95;89.47;101483.66;5054744;28;20194;-72
2024/01/25 02:00:17;;;;;;;32.47;6.20;;;;;;;6.92;90.18;101480.38;5054632;28;20293;-72
2024/01/25 02:02:46;;;;;;;29.33;6.43;;;;;;;6.89;89.93;101483.28;5054538;28;20252;-72
2024/01/25 02:05:15;;;;;;;19.80;5.00;;;;;;;6.88;90.03;101484.28;5054579;28;20249;-72
2024/01/25 02:07:44;;;;;;;26.33;5.93;;;;;;;6.88;90.07;101482.47;5054519;28;20206;-72
2024/01/25 02:10:13;;;;;;;22.30;5.67;;;;;;;6.87;90.38;101490.56;5054389;28;20226;-72
2024/01/25 02:12:43;;;;;;;23.60;5.33;;;;;;;6.86;89.98;101483.53;5053721;28;20210;-72
2024/01/25 02:15:11;;;;;;;25.27;5.57;;;;;;;6.82;89.91;101498.03;5054420;28;20234;-72
2024/01/25 02:17:40;;;;;;;26.43;5.90;;;;;;;6.80;90.25;101497.31;5054359;28;20242;-72
2024/01/25 02:20:10;;;;;;;32.07;6.50;;;;;;;6.77;90.20;101493.09;5053932;28;20569;-72
2024/01/25 02:22:40;;;;;;;23.43;5.33;;;;;;;6.79;90.54;101498.28;5054074;28;20206;-72
2024/01/25 02:25:09;;;;;;;26.87;5.33;;;;;;;6.79;90.38;101500.94;5053823;28;20213;-72
2024/01/25 02:27:39;;;;;;;29.40;6.07;;;;;;;6.78;90.64;101494.75;5054090;28;20206;-72
2024/01/25 02:30:08;;;;;;;21.23;5.30;;;;;;;6.76;90.33;101498.50;5054024;28;20321;-72
2024/01/25 02:32:37;;;;;;;27.53;5.27;;;;;;;6.73;90.44;101502.25;5053665;28;20664;-72
2024/01/25 02:35:06;;;;;;;27.53;5.47;;;;;;;6.72;90.74;101497.03;5053575;28;20650;-72
2024/01/25 02:37:35;;;;;;;24.80;5.30;;;;;;;6.74;90.90;101505.78;5053171;28;20209;-72
2024/01/25 02:40:06;;;;;;;27.90;5.53;;;;;;;6.74;90.82;101505.78;5053365;28;20260;-72
2024/01/25 02:42:35;;;;;;;21.27;5.10;;;;;;;6.73;90.38;101509.38;5053025;28;20206;-72
2024/01/25 02:45:04;;;;;;;22.77;5.80;;;;;;;6.72;90.47;101507.69;5053323;28;20206;-72
2024/01/25 02:47:32;;;;;;;27.50;4.80;;;;;;;6.72;90.70;101527.16;5052699;28;20647;-72
2024/01/25 02:50:01;;;;;;;39.13;6.07;;;;;;;6.76;90.18;101520.66;5052901;28;20264;-72
2024/01/25 02:52:30;;;;;;;23.27;6.03;;;;;;;6.74;90.10;101522.59;5052858;28;20202;-72
2024/01/25 02:54:58;;;;;;;27.63;5.50;;;;;;;6.71;90.51;101516.66;5052906;28;20212;-72
2024/01/25 02:57:28;;;;;;;31.87;5.87;;;;;;;6.73;90.63;101520.03;5052952;28;20660;-72
2024/01/25 02:59:57;;;;;;;34.37;6.83;;;;;;;6.71;90.43;101522.84;5052835;28;20233;-72
2024/01/25 03:02:25;;;;;;;29.27;5.77;;;;;;;6.71;90.63;101514.00;5052796;28;20209;-72
2024/01/25 03:04:54;;;;;;;26.27;5.80;;;;;;;6.72;90.49;101523.66;5052891;28;20226;-72
2024/01/25 03:07:23;;;;;;;22.50;5.50;;;;;;;6.71;90.33;101530.81;5052950;28;20202;-72
2024/01/25 03:09:54;;;;;;;26.20;5.67;;;;;;;6.70;89.99;101531.78;5052339;28;20677;-72
2024/01/25 03:12:23;;;;;;;25.10;5.50;;;;;;;6.72;90.50;101528.97;5052426;28;20702;-72
2024/01/25 03:14:52;;;;;;;28.87;5.80;;;;;;;6.70;89.82;101521.13;5052571;28;20229;-72
2024/01/25 03:17:21;;;;;;;26.03;5.30;;;;;;;6.69;91.11;101523.88;5052307;28;20261;-72
2024/01/25 03:19:50;;;;;;;28.10;5.70;;;;;;;6.66;90.25;101514.34;5052535;28;20759;-72
2024/01/25 03:22:19;;;;;;;25.97;5.60;;;;;;;6.68;90.85;101519.56;5052549;28;20208;-72
2024/01/25 03:24:48;;;;;;;30.63;6.23;;;;;;;6.67;90.73;101525.81;5051241;28;20230;-72
2024/01/25 03:27:16;;;;;;;30.07;5.57;;;;;;;6.64;90.90;101522.41;5052481;28;20212;-72
2024/01/25 03:29:45;;;;;;;29.40;5.57;;;;;;;6.63;91.45;101514.56;5052366;28;20316;-72
2024/01/25 03:32:15;;;;;;;25.13;5.97;;;;;;;6.64;90.54;101525.06;5052451;28;20218;-72
2024/01/25 03:34:43;;;;;;;26.43;5.20;;;;;;;6.66;90.39;101500.19;5012897;28;1117380;-72
2024/01/25 03:37:12;;;;;;;31.93;6.57;;;;;;;6.64;90.01;101538.38;5053471;28;20237;-72
2024/01/25 03:39:41;;;;;;;25.13;5.50;;;;;;;6.66;90.93;101532.09;5053185;28;20201;-72
2024/01/25 03:42:09;;;;;;;30.17;6.43;;;;;;;6.63;90.63;101525.22;5053088;28;20571;-72
2024/01/25 03:44:38;;;;;;;23.97;5.00;;;;;;;6.61;90.65;101527.97;5052778;28;20724;-72
2024/01/25 03:47:07;;;;;;;29.50;5.87;;;;;;;6.61;90.97;101533.28;5052805;28;20583;-72
2024/01/25 03:49:36;;;;;;;26.43;5.57;;;;;;;6.59;90.55;101537.91;5053062;28;20286;-72
2024/01/25 03:52:05;;;;;;;19.33;5.50;;;;;;;6.58;91.09;101554.81;5053084;28;20210;-72
2024/01/25 03:54:34;;;;;;;28.97;5.90;;;;;;;6.59;91.34;101548.53;5052875;28;20733;-72
2024/01/25 03:57:03;;;;;;;28.23;5.87;;;;;;;6.62;90.73;101550.13;5053041;28;20234;-72
2024/01/25 03:59:32;;;;;;;24.00;5.13;;;;;;;6.63;91.41;101567.78;5052694;28;20660;-72
2024/01/25 04:02:00;;;;;;;29.13;5.40;;;;;;;6.61;90.59;101567.03;5052869;28;20213;-72
2024/01/25 04:04:29;;;;;;;28.63;5.40;;;;;;;6.58;91.37;101569.94;5052824;28;20303;-72
2024/01/25 04:06:59;;;;;;;23.63;5.80;;;;;;;6.55;91.54;101560.38;5052935;28;20234;-72
2024/01/25 04:09:27;;;;;;;29.17;5.83;;;;;;;6.54;91.99;101571.97;5052422;28;20217;-72
2024/01/25 04:11:57;;;;;;;24.43;6.33;;;;;;;6.53;91.52;101570.28;5053096;28;20210;-72
2024/01/25 04:14:26;;;;;;;28.00;5.70;;;;;;;6.51;91.91;101569.53;5052490;28;20317;-72
2024/01/25 04:16:54;;;;;;;28.33;5.70;;;;;;;6.48;91.32;101563.59;5052515;28;20671;-72
2024/01/25 04:19:24;;;;;;;26.63;5.17;;;;;;;6.48;91.96;101588.38;5052829;28;20202;-72
2024/01/25 04:21:52;;;;;;;22.93;5.40;;;;;;;6.47;91.67;101575.22;5052474;28;20260;-72
2024/01/25 04:24:22;;;;;;;27.60;5.97;;;;;;;6.43;91.83;101579.06;5052369;28;20644;-72
2024/01/25 04:26:51;;;;;;;29.30;5.67;;;;;;;6.39;91.80;101581.09;5052602;28;20575;-72
2024/01/25 04:29:19;;;;;;;24.00;5.40;;;;;;;6.35;92.36;101582.28;5052718;28;20206;-72
2024/01/25 04:31:48;;;;;;;25.83;5.50;;;;;;;6.33;91.77;101576.25;5052646;28;20688;-72
2024/01/25 04:34:17;;;;;;;23.57;5.43;;;;;;;6.33;92.03;101568.25;5053385;28;20645;-72
2024/01/25 04:36:46;;;;;;;31.23;6.57;;;;;;;6.34;91.83;101566.41;5054857;28;20297;-72
2024/01/25 04:39:15;;;;;;;28.97;6.03;;;;;;;6.33;91.76;101576.25;5055910;28;20210;-72
2024/01/25 04:41:44;;;;;;;25.40;6.27;;;;;;;6.33;91.80;101578.91;5056181;28;20285;-72
2024/01/25 04:44:13;;;;;;;25.83;5.63;;;;;;;6.28;92.44;101594.31;5056068;28;20257;-72
2024/01/25 04:46:42;;;;;;;26.17;5.70;;;;;;;6.30;92.51;101596.88;5056072;28;20296;-72
2024/01/25 04:49:11;;;;;;;24.80;5.37;;;;;;;6.27;93.00;101605.09;5056056;28;20226;-72
2024/01/25 04:51:39;;;;;;;25.50;5.63;;;;;;;6.26;92.51;101614.88;5055596;28;20600;-72
2024/01/25 04:54:12;;;;;;;25.77;5.80;;;;;;;6.23;92.81;101607.13;5055883;28;20232;-72
2024/01/25 04:56:41;;;;;;;28.77;6.00;;;;;;;6.19;92.79;101634.88;5055975;28;20218;-72
2024/01/25 04:59:11;;;;;;;29.10;5.77;;;;;;;6.20;92.30;101633.91;5055827;28;20298;-72
2024/01/25 05:01:39;;;;;;;26.53;5.07;;;;;;;6.20;92.21;101647.19;5055802;28;20298;-72
2024/01/25 05:04:08;;;;;;;27.53;5.80;;;;;;;6.18;92.62;101665.09;5055718;28;20313;-72
2024/01/25 05:06:37;;;;;;;23.37;4.80;;;;;;;6.16;93.04;101663.50;5055754;28;20229;-73
2024/01/25 05:09:08;;;;;;;18.97;5.27;;;;;;;6.15;92.89;101673.28;5055638;28;20201;-72
2024/01/25 05:11:39;;;;;;;21.77;4.73;;;;;;;6.16;93.33;101667.03;5055596;28;20264;-72
2024/01/25 05:14:09;;;;;;;26.53;6.60;;;;;;;6.13;93.40;101661.88;5055551;28;20229;-72
2024/01/25 05:16:38;;;;;;;28.63;5.50;;;;;;;6.11;92.93;101672.66;5055512;28;20209;-72
2024/01/25 05:19:06;;;;;;;25.13;5.57;;;;;;;6.13;93.42;101669.03;5055385;28;20213;-72
2024/01/25 05:21:35;;;;;;;24.17;5.50;;;;;;;6.10;93.53;101681.59;5055426;28;20228;-72
2024/01/25 05:24:04;;;;;;;23.27;5.73;;;;;;;6.08;93.78;101677.34;5055021;28;20693;-72
2024/01/25 05:26:33;;;;;;;23.93;5.20;;;;;;;6.11;93.72;101683.28;5055040;28;20721;-72
2024/01/25 05:29:02;;;;;;;21.53;5.33;;;;;;;6.09;94.32;101674.59;5054975;28;20301;-72
2024/01/25 05:31:32;;;;;;;28.33;6.97;;;;;;;6.09;94.30;101668.41;5055163;28;20233;-72
2024/01/25 05:34:00;;;;;;;23.67;6.13;;;;;;;6.09;93.90;101663.09;5055141;28;20226;-72
2024/01/25 05:36:29;;;;;;;27.43;5.40;;;;;;;6.10;94.15;101672.75;5055788;28;20745;-72
2024/01/25 05:38:58;;;;;;;24.10;6.10;;;;;;;6.07;94.38;101672.97;5055181;28;20202;-72
2024/01/25 05:41:26;;;;;;;26.00;6.57;;;;;;;6.07;94.59;101675.63;5055079;28;20293;-72
2024/01/25 05:43:55;;;;;;;25.43;6.50;;;;;;;6.04;94.22;101667.88;5055770;28;20236;-72
2024/01/25 05:46:23;;;;;;;32.00;6.20;;;;;;;6.02;94.42;101675.13;5054967;28;20239;-72
2024/01/25 05:48:53;;;;;;;25.20;6.10;;;;;;;6.02;94.40;101673.31;5054000;28;20205;-72
2024/01/25 05:51:22;;;;;;;30.57;6.23;;;;;;;6.04;94.54;101689.13;5054915;28;20696;-72
2024/01/25 05:53:51;;;;;;;23.93;6.27;;;;;;;6.04;94.45;101689.13;5054730;28;20262;-72
2024/01/25 05:56:19;;;;;;;23.43;5.27;;;;;;;6.05;94.78;101693.50;5054786;28;20237;-72
2024/01/25 05:58:48;;;;;;;20.80;5.00;;;;;;;6.03;94.60;101682.13;5054658;28;20253;-72
2024/01/25 06:01:17;;;;;;;25.73;5.70;;;;;;;6.01;94.54;101686.69;5054371;28;20682;-72
2024/01/25 06:03:45;;;;;;;25.67;5.40;;;;;;;5.98;94.84;101685.13;5054276;28;20226;-72
2024/01/25 06:06:15;;;;;;;22.23;5.27;;;;;;;5.97;94.67;101680.75;5054582;28;20297;-72
2024/01/25 06:08:44;;;;;;;31.47;5.03;;;;;;;5.97;94.72;101688.72;5054516;28;20558;-72
2024/01/25 06:11:25;;;;;;;23.97;4.87;;;;;;;5.99;94.98;101691.28;5054125;28;20249;-72
2024/01/25 06:13:54;;;;;;;26.97;5.63;;;;;;;5.97;95.19;101696.69;5054332;28;20597;-72
2024/01/25 06:16:23;;;;;;;26.43;5.90;;;;;;;5.99;94.95;101691.28;5054345;28;20206;-72
2024/01/25 06:18:51;;;;;;;26.27;5.43;;;;;;;5.99;94.91;101694.78;5054313;28;20263;-72
2024/01/25 06:21:21;;;;;;;26.87;5.43;;;;;;;5.97;95.09;101711.78;5054288;28;20225;-72
2024/01/25 06:23:50;;;;;;;25.90;5.83;;;;;;;6.00;94.74;101707.13;5054175;28;20268;-72
2024/01/25 06:26:17;;;;;;;29.37;5.70;;;;;;;5.98;94.72;101702.88;5053901;28;20640;-72
2024/01/25 06:28:46;;;;;;;25.10;5.23;;;;;;;6.01;95.18;101710.63;5054355;28;20271;-67
2024/01/25 06:31:15;;;;;;;30.67;6.43;;;;;;;5.96;94.88;101704.75;5054078;28;20233;-70
2024/01/25 06:33:46;;;;;;;28.70;5.93;;;;;;;5.93;95.24;101711.16;5054002;28;20258;-70
2024/01/25 06:36:16;;;;;;;27.33;6.33;;;;;;;5.93;94.85;101728.91;5053879;28;20312;-70
2024/01/25 06:38:46;;;;;;;24.47;4.87;;;;;;;5.94;95.45;101733.28;5053954;28;20214;-70
2024/01/25 06:41:16;;;;;;;23.90;5.33;;;;;;;5.95;95.01;101738.50;5053929;28;20206;-70
2024/01/25 06:43:44;;;;;;;27.97;5.37;;;;;;;5.95;95.00;101740.31;5053838;28;20226;-70
2024/01/25 06:46:13;;;;;;;25.03;5.57;;;;;;;5.94;95.57;101741.25;5053827;28;20233;-70
2024/01/25 06:48:41;;;;;;;24.70;5.17;;;;;;;5.94;95.64;101746.56;5053779;28;20206;-70
2024/01/25 06:51:10;;;;;;;24.73;5.53;;;;;;;5.92;95.74;101740.53;5053392;28;20703;-70
2024/01/25 06:53:39;;;;;;;27.63;5.17;;;;;;;5.90;95.74;101745.94;5054196;28;20311;-70
2024/01/25 06:56:09;;;;;;;27.23;5.97;;;;;;;5.90;96.16;101753.03;5053729;28;20216;-70
2024/01/25 06:58:38;;;;;;;25.53;6.27;;;;;;;5.87;96.29;101761.22;5053472;28;20699;-70
2024/01/25 07:01:07;;;;;;;27.93;5.50;;;;;;;5.84;96.40;101756.09;5053315;28;20210;-70
2024/01/25 07:03:36;;;;;;;18.33;4.53;;;;;;;5.81;96.74;101749.19;5053515;28;20234;-70
2024/01/25 07:06:06;;;;;;;20.70;5.23;;;;;;;5.82;96.41;101764.16;5053508;28;20209;-70
2024/01/25 07:08:34;;;;;;;30.53;6.00;;;;;;;5.82;96.53;101771.31;5053718;28;20206;-70
2024/01/25 07:11:03;;;;;;;29.23;5.30;;;;;;;5.84;96.79;101777.34;5053410;28;20297;-70
2024/01/25 07:13:32;;;;;;;25.37;5.37;;;;;;;5.82;96.76;101787.25;5053363;28;20237;-70
2024/01/25 07:16:01;;;;;;;31.00;5.97;;;;;;;5.82;97.09;101793.38;5053389;28;20245;-70
2024/01/25 07:18:30;;;;;;;23.80;5.73;;;;;;;5.81;97.35;101804.13;5053409;28;20233;-70
2024/01/25 07:20:59;;;;;;;31.20;6.07;;;;;;;5.82;97.39;101809.34;5053028;28;20690;-70
2024/01/25 07:23:30;;;;;;;28.47;5.83;;;;;;;5.84;97.11;101806.59;5052941;28;20720;-70
2024/01/25 07:25:58;;;;;;;24.67;5.47;;;;;;;5.87;97.30;101809.06;5054019;28;20247;-70
2024/01/25 07:28:27;;;;;;;23.53;5.40;;;;;;;5.84;97.31;101801.28;5053282;28;20212;-70
2024/01/25 07:30:57;;;;;;;27.70;5.67;;;;;;;5.81;97.25;101793.50;5053290;28;20206;-70
2024/01/25 07:33:25;;;;;;;24.70;5.73;;;;;;;5.82;97.49;101808.50;5053320;28;20233;-70
2024/01/25 07:35:58;;;;;;;21.97;4.77;;;;;;;5.80;97.94;101795.31;5053031;28;20263;-70
2024/01/25 07:38:26;;;;;;;27.53;5.67;;;;;;;5.80;97.98;101800.63;5053809;28;20208;-70
2024/01/25 07:40:55;;;;;;;23.23;5.60;;;;;;;5.79;98.51;101798.91;5053182;28;20252;-70
2024/01/25 07:43:24;;;;;;;32.20;5.93;;;;;;;5.74;98.34;101794.88;5053054;28;20624;-70
2024/01/25 07:45:52;;;;;;;28.07;5.90;;;;;;;5.72;98.28;101807.44;5053109;28;20211;-70
2024/01/25 07:48:23;;;;;;;25.63;5.37;;;;;;;5.66;99.01;101807.81;5052782;28;20584;-70
2024/01/25 07:50:52;;;;;;;29.27;5.87;;;;;;;5.65;99.25;101811.44;5053075;28;20264;-70
2024/01/25 07:53:21;;;;;;;27.40;6.10;;;;;;;5.66;99.86;101813.13;5052910;28;20234;-70
2024/01/25 07:55:50;;;;;;;27.17;5.53;;;;;;;5.65;99.32;101828.22;5053049;28;20301;-71
2024/01/25 07:58:18;;;;;;;26.87;5.77;;;;;;;5.63;99.91;101807.09;5053044;28;20301;-70
2024/01/25 08:00:47;;;;;;;29.93;6.03;;;;;;;5.63;99.73;101817.72;5052994;28;20217;-70
2024/01/25 08:03:17;;;;;;;33.70;6.53;;;;;;;5.64;99.94;101826.53;5052872;28;20650;-70
2024/01/25 08:05:47;;;;;;;26.23;5.53;;;;;;;5.65;100.00;101822.06;5052973;28;20213;-70
2024/01/25 08:08:19;;;;;;;30.30;5.23;;;;;;;5.63;100.00;101831.00;5052649;28;20659;-70
2024/01/25 08:10:47;;;;;;;29.27;6.00;;;;;;;5.67;100.00;101830.78;5053789;28;20210;-70
2024/01/25 08:13:16;;;;;;;22.53;5.77;;;;;;;5.67;99.99;101830.78;5056555;28;20704;-70
2024/01/25 08:15:45;;;;;;;30.00;6.53;;;;;;;5.68;100.00;101832.50;5056649;28;20289;-70
2024/01/25 08:18:13;;;;;;;31.10;6.33;;;;;;;5.67;100.00;101834.28;5056637;28;20228;-70
2024/01/25 08:20:42;;;;;;;29.37;6.73;;;;;;;5.70;100.00;101833.22;5056611;28;20206;-67
2024/01/25 08:23:13;;;;;;;28.80;5.93;;;;;;;5.69;100.00;101837.69;5056460;28;20344;-73
2024/01/25 08:25:42;;;;;;;32.87;6.83;;;;;;;5.70;100.00;101838.53;5056492;28;20253;-74
2024/01/25 08:28:11;;;;;;;34.10;5.70;;;;;;;5.74;99.85;101858.66;5056446;28;20207;-73
2024/01/25 08:30:40;;;;;;;33.23;6.10;;;;;;;5.72;100.00;101860.56;5056094;28;20672;-74
2024/01/25 08:33:08;;;;;;;28.17;5.43;;;;;;;5.73;99.66;101862.25;5055915;28;20602;-74
2024/01/25 08:35:37;;;;;;;21.50;5.83;;;;;;;5.73;99.96;101870.22;5056316;28;20620;-74
2024/01/25 08:38:06;;;;;;;30.43;6.20;;;;;;;5.71;100.00;101869.47;5056270;28;20259;-75
2024/01/25 08:40:36;;;;;;;35.97;6.37;;;;;;;5.74;100.00;101879.91;5055897;28;20627;-75
2024/01/25 08:43:05;;;;;;;30.30;7.00;;;;;;;5.75;99.50;101877.16;5056123;28;20252;-74
2024/01/25 08:45:34;;;;;;;28.97;7.23;;;;;;;5.76;99.97;101878.00;5056080;28;20210;-74
2024/01/25 08:48:03;;;;;;;30.93;6.10;;;;;;;5.77;99.85;101874.38;5056097;28;20623;-74
2024/01/25 08:50:33;;;;;;;28.73;6.30;;;;;;;5.78;100.00;101882.28;5055774;28;20300;-75
2024/01/25 08:53:02;;;;;;;24.47;6.23;;;;;;;5.77;99.42;101892.97;5055915;28;20264;-75
2024/01/25 08:55:30;;;;;;;24.50;6.20;;;;;;;5.74;99.45;101885.22;5055957;28;20208;-74
2024/01/25 08:58:00;;;;;;;32.93;6.30;;;;;;;5.75;99.47;101893.09;5056691;28;20587;-74
2024/01/25 09:00:29;;;;;;;26.47;5.40;;;;;;;5.77;99.84;101891.19;5055557;28;20581;-74
2024/01/25 09:02:58;;;;;;;31.30;6.37;;;;;;;5.76;99.71;101901.91;5055762;28;20231;-74
2024/01/25 09:05:28;;;;;;;25.63;6.27;;;;;;;5.77;99.30;101908.94;5055789;28;20222;-74
2024/01/25 09:07:57;;;;;;;20.13;5.57;;;;;;;5.76;99.63;101900.09;5055763;28;20190;-74
2024/01/25 09:10:25;;;;;;;32.13;6.87;;;;;;;5.75;100.00;101902.88;5055664;28;20212;-74
2024/01/25 09:12:54;;;;;;;32.77;7.30;;;;;;;5.76;100.00;101918.69;5055449;28;20233;-73
2024/01/25 09:15:24;;;;;;;34.07;6.60;;;;;;;5.76;100.00;101909.88;5055553;28;20213;-74
2024/01/25 09:17:52;;;;;;;27.40;5.80;;;;;;;5.75;100.00;101910.84;5055583;28;20230;-75
2024/01/25 09:20:21;;;;;;;28.03;6.13;;;;;;;5.79;99.92;101910.53;5055478;28;20256;-75
2024/01/25 09:22:50;;;;;;;26.63;5.97;;;;;;;5.78;99.71;101903.53;5055289;28;20229;-74
2024/01/25 09:25:18;;;;;;;31.73;6.77;;;;;;;5.81;99.97;101910.44;5055417;28;20202;-74
2024/01/25 09:27:47;;;;;;;23.27;5.77;;;;;;;5.78;99.71;101918.63;5055321;28;20289;-75
2024/01/25 09:30:16;;;;;;;31.13;6.87;;;;;;;5.75;99.87;101918.81;5054920;28;20218;-75
2024/01/25 09:32:46;;;;;;;37.90;6.33;;;;;;;5.75;100.00;101917.03;5054954;28;20232;-75
2024/01/25 09:35:16;;;;;;;27.10;5.83;;;;;;;5.76;100.00;101926.66;5055124;28;20317;-75
2024/01/25 09:37:45;;;;;;;30.60;6.37;;;;;;;5.78;100.00;101932.75;5054834;28;20551;-75
2024/01/25 09:40:14;;;;;;;25.60;6.47;;;;;;;5.77;100.00;101928.38;5055098;28;20260;-75
2024/01/25 09:42:43;;;;;;;38.13;6.80;;;;;;;5.80;100.00;101937.97;5054898;28;20205;-74
2024/01/25 09:45:18;;;;;;;24.53;6.43;;;;;;;5.80;99.76;101936.16;5054966;28;20210;-74
2024/01/25 09:47:49;;;;;;;28.00;6.13;;;;;;;5.82;99.78;101934.22;5055029;28;20195;-75
2024/01/25 09:50:18;;;;;;;23.73;5.60;;;;;;;5.87;99.96;101939.28;5054628;28;20664;-75
2024/01/25 09:52:54;;;;;;;28.33;6.03;;;;;;;5.90;100.00;101939.94;5054722;28;20280;-74
2024/01/25 09:55:26;;;;;;;26.17;6.37;;;;;;;5.90;99.67;101939.09;5054498;28;20638;-74
2024/01/25 09:57:56;;;;;;;29.67;6.37;;;;;;;5.95;100.00;101948.47;5055039;28;20195;-75
2024/01/25 10:00:25;;;;;;;33.77;7.23;;;;;;;5.98;99.85;101939.44;5054728;28;20202;-75
2024/01/25 10:02:55;;;;;;;28.93;5.83;;;;;;;6.00;98.12;101930.41;5054551;28;20226;-75
2024/01/25 10:05:24;;;;;;;24.90;6.03;;;;;;;6.05;98.73;101938.09;5054594;28;20229;-75
2024/01/25 10:07:52;;;;;;;24.27;6.53;;;;;;;6.05;98.51;101946.06;5054570;28;20260;-75
2024/01/25 10:10:21;;;;;;;24.87;6.07;;;;;;;6.09;98.00;101947.56;5054562;28;20202;-75
2024/01/25 10:12:50;;;;;;;26.93;6.40;;;;;;;6.09;97.09;101950.22;5054806;28;20238;-75
2024/01/25 10:15:18;;;;;;;30.60;7.27;;;;;;;6.09;96.84;101942.25;5054478;28;20255;-75
2024/01/25 10:17:47;;;;;;;28.00;6.43;;;;;;;6.09;96.64;101937.78;5054337;28;20229;-74
2024/01/25 10:20:37;;;;;;;25.43;5.97;;;;;;;6.10;97.02;101943.94;5054213;28;20217;-74
2024/01/25 10:23:06;;;;;;;27.57;6.97;;;;;;;6.10;95.84;101943.94;5055064;28;20222;-74
2024/01/25 10:25:35;;;;;;;29.50;5.90;;;;;;;6.10;96.92;101941.28;5054228;28;20238;-74
2024/01/25 10:28:05;;;;;;;34.67;7.33;;;;;;;6.12;98.18;101947.34;5054139;28;20205;-74
2024/01/25 10:30:35;;;;;;;28.17;6.60;;;;;;;6.14;98.32;101956.06;5053787;28;20206;-74
2024/01/25 10:33:05;;;;;;;26.00;6.93;;;;;;;6.15;97.32;101959.59;5053655;28;20321;-75
2024/01/25 10:35:37;;;;;;;35.27;7.77;;;;;;;6.13;97.67;101954.34;5053643;28;20217;-75
2024/01/25 10:38:06;;;;;;;23.10;7.43;;;;;;;6.14;97.94;101958.72;5054071;28;20205;-75
2024/01/25 10:40:36;;;;;;;32.90;7.07;;;;;;;6.15;96.75;101960.44;5053667;28;20737;-75
2024/01/25 10:43:05;;;;;;;27.03;6.80;;;;;;;6.10;96.76;101951.91;5053871;28;20226;-75
2024/01/25 10:45:34;;;;;;;28.67;6.20;;;;;;;6.14;97.18;101948.09;5053565;28;20681;-75
2024/01/25 10:48:03;;;;;;;29.40;6.93;;;;;;;6.19;96.86;101953.13;5053802;28;20210;-75
2024/01/25 10:50:31;;;;;;;17.53;5.67;;;;;;;6.18;95.75;101959.38;5053494;28;20210;-75
2024/01/25 10:53:03;;;;;;;23.07;5.83;;;;;;;6.21;96.38;101954.72;5053636;28;20226;-74
2024/01/25 10:55:32;;;;;;;20.47;6.03;;;;;;;6.24;95.81;101959.81;5053444;28;20771;-74
2024/01/25 10:58:00;;;;;;;27.10;7.40;;;;;;;6.24;95.99;101964.28;5053721;28;20293;-74
2024/01/25 11:00:34;;;;;;;29.43;8.77;;;;;;;6.24;96.32;101967.78;5053691;28;20256;-75
2024/01/25 11:03:06;;;;;;;22.57;7.60;;;;;;;6.25;97.31;101961.53;5053575;28;20280;-74
2024/01/25 11:05:36;;;;;;;27.43;8.90;;;;;;;6.23;96.87;101966.13;5053278;28;20552;-74
2024/01/25 11:08:17;;;;;;;32.43;8.37;;;;;;;6.20;97.21;101955.66;5053508;28;20206;-74
2024/01/25 11:10:51;;;;;;;26.43;7.77;;;;;;;6.21;97.07;101953.84;5053537;28;20194;-75
2024/01/25 11:13:27;;;;;;;28.93;7.37;;;;;;;6.21;95.99;101960.03;5053093;28;20248;-74
2024/01/25 11:15:56;;;;;;;24.03;7.13;;;;;;;6.23;96.84;101960.78;5053486;28;20193;-74
2024/01/25 11:18:26;;;;;;;20.40;6.90;;;;;;;6.24;96.63;101961.63;5053403;28;20203;-74
2024/01/25 11:21:00;;;;;;;29.83;7.43;;;;;;;6.21;96.57;101960.03;5053642;28;20261;-74
2024/01/25 11:23:33;;;;;;;24.90;7.43;;;;;;;6.24;96.80;101949.19;5053355;28;20309;-74
2024/01/25 11:26:02;;;;;;;24.53;7.07;;;;;;;6.24;97.66;101951.84;5053392;28;20194;-74
2024/01/25 11:28:30;;;;;;;32.30;7.17;;;;;;;6.25;97.31;101945.56;5053404;28;20216;-74
2024/01/25 11:30:59;;;;;;;25.33;6.57;;;;;;;6.26;98.17;101946.44;5053277;28;20206;-75
2024/01/25 11:33:28;;;;;;;23.27;6.40;;;;;;;6.31;98.53;101949.63;5052794;28;20237;-75